sensor_id;sensor_type;location;lat;lon;timestamp;temperature;humidity
22940;DHT22;11636;52.086;5.090;2024-02-26T00:01:19;5.70;99.90
22940;DHT22;11636;52.086;5.090;2024-02-26T00:03:46;5.60;99.90
22940;DHT22;11636;52.086;5.090;2024-02-26T00:06:20;5.60;99.90
22940;DHT22;11636;52.086;5.090;2024-02-26T00:08:54;5.70;99.90
22940;DHT22;11636;52.086;5.090;2024-02-26T00:11:21;5.60;99.90
22940;DHT22;11636;52.086;5.090;2024-02-26T00:13:54;5.60;99.90
22940;DHT22;11636;52.086;5.090;2024-02-26T00:16:21;5.60;99.90
22940;DHT22;11636;52.086;5.090;2024-02-26T00:18:48;5.60;99.90
22940;DHT22;11636;52.086;5.090;2024-02-26T00:21:21;5.60;99.90
22940;DHT22;11636;52.086;5.090;2024-02-26T00:23:53;5.60;99.90
22940;DHT22;11636;52.086;5.090;2024-02-26T00:26:20;5.50;99.90
22940;DHT22;11636;52.086;5.090;2024-02-26T00:28:53;5.50;99.90
22940;DHT22;11636;52.086;5.090;2024-02-26T00:31:20;5.50;99.90
22940;DHT22;11636;52.086;5.090;2024-02-26T00:33:53;5.50;99.90
22940;DHT22;11636;52.086;5.090;2024-02-26T00:36:20;5.50;99.90
22940;DHT22;11636;52.086;5.090;2024-02-26T00:38:53;5.50;99.90
22940;DHT22;11636;52.086;5.090;2024-02-26T00:41:26;5.40;99.90
22940;DHT22;11636;52.086;5.090;2024-02-26T00:43:53;5.40;99.90
22940;DHT22;11636;52.086;5.090;2024-02-26T00:46:26;5.40;99.90
22940;DHT22;11636;52.086;5.090;2024-02-26T00:48:53;5.40;99.90
22940;DHT22;11636;52.086;5.090;2024-02-26T00:51:26;5.40;99.90
22940;DHT22;11636;52.086;5.090;2024-02-26T00:53:59;5.40;99.90
22940;DHT22;11636;52.086;5.090;2024-02-26T00:56:32;5.40;99.90
22940;DHT22;11636;52.086;5.090;2024-02-26T00:59:05;5.40;99.90
22940;DHT22;11636;52.086;5.090;2024-02-26T01:01:39;5.40;99.90
22940;DHT22;11636;52.086;5.090;2024-02-26T01:04:12;5.40;99.90
22940;DHT22;11636;52.086;5.090;2024-02-26T01:06:39;5.40;99.90
22940;DHT22;11636;52.086;5.090;2024-02-26T01:09:12;5.40;99.90
22940;DHT22;11636;52.086;5.090;2024-02-26T01:11:39;5.40;99.90
22940;DHT22;11636;52.086;5.090;2024-02-26T01:14:06;5.40;99.90
22940;DHT22;11636;52.086;5.090;2024-02-26T01:16:39;5.40;99.90
22940;DHT22;11636;52.086;5.090;2024-02-26T01:19:06;5.40;99.90
22940;DHT22;11636;52.086;5.090;2024-02-26T01:21:33;5.40;99.90
22940;DHT22;11636;52.086;5.090;2024-02-26T01:24:06;5.40;99.90
22940;DHT22;11636;52.086;5.090;2024-02-26T01:26:40;5.40;99.90
22940;DHT22;11636;52.086;5.090;2024-02-26T01:29:07;5.40;99.90
22940;DHT22;11636;52.086;5.090;2024-02-26T01:31:34;5.40;99.90
22940;DHT22;11636;52.086;5.090;2024-02-26T01:34:07;5.40;99.90
22940;DHT22;11636;52.086;5.090;2024-02-26T01:36:34;5.40;99.90
22940;DHT22;11636;52.086;5.090;2024-02-26T01:39:08;5.40;99.90
22940;DHT22;11636;52.086;5.090;2024-02-26T01:41:39;5.50;99.90
22940;DHT22;11636;52.086;5.090;2024-02-26T01:44:06;5.50;99.90
22940;DHT22;11636;52.086;5.090;2024-02-26T01:46:39;5.50;99.90
22940;DHT22;11636;52.086;5.090;2024-02-26T01:49:08;5.50;99.90
22940;DHT22;11636;52.086;5.090;2024-02-26T01:51:45;5.50;99.90
22940;DHT22;11636;52.086;5.090;2024-02-26T01:54:12;5.50;99.90
22940;DHT22;11636;52.086;5.090;2024-02-26T01:56:40;5.50;99.90
22940;DHT22;11636;52.086;5.090;2024-02-26T01:59:14;5.50;99.90
22940;DHT22;11636;52.086;5.090;2024-02-26T02:01:44;5.60;99.90
22940;DHT22;11636;52.086;5.090;2024-02-26T02:04:23;5.60;99.90
22940;DHT22;11636;52.086;5.090;2024-02-26T02:06:52;5.60;99.90
22940;DHT22;11636;52.086;5.090;2024-02-26T02:09:27;5.60;99.90
22940;DHT22;11636;52.086;5.090;2024-02-26T02:11:54;5.60;99.90
22940;DHT22;11636;52.086;5.090;2024-02-26T02:14:21;5.60;99.90
22940;DHT22;11636;52.086;5.090;2024-02-26T02:16:54;5.60;99.90
22940;DHT22;11636;52.086;5.090;2024-02-26T02:19:21;5.60;99.90
22940;DHT22;11636;52.086;5.090;2024-02-26T02:21:54;5.60;99.90
22940;DHT22;11636;52.086;5.090;2024-02-26T02:24:21;5.60;99.90
22940;DHT22;11636;52.086;5.090;2024-02-26T02:26:55;5.60;99.90
22940;DHT22;11636;52.086;5.090;2024-02-26T02:29:22;5.60;99.90
22940;DHT22;11636;52.086;5.090;2024-02-26T02:31:50;5.60;99.90
22940;DHT22;11636;52.086;5.090;2024-02-26T02:34:24;5.60;99.90
22940;DHT22;11636;52.086;5.090;2024-02-26T02:36:57;5.60;99.90
22940;DHT22;11636;52.086;5.090;2024-02-26T02:39:24;5.60;99.90
22940;DHT22;11636;52.086;5.090;2024-02-26T02:41:51;5.60;99.90
22940;DHT22;11636;52.086;5.090;2024-02-26T02:44:24;5.60;99.90
22940;DHT22;11636;52.086;5.090;2024-02-26T02:46:51;5.60;99.90
22940;DHT22;11636;52.086;5.090;2024-02-26T02:49:26;5.60;99.90
22940;DHT22;11636;52.086;5.090;2024-02-26T02:51:53;5.60;99.90
22940;DHT22;11636;52.086;5.090;2024-02-26T02:54:27;5.60;99.90
22940;DHT22;11636;52.086;5.090;2024-02-26T02:57:00;5.60;99.90
22940;DHT22;11636;52.086;5.090;2024-02-26T02:59:27;5.60;99.90
22940;DHT22;11636;52.086;5.090;2024-02-26T03:02:00;5.60;99.90
22940;DHT22;11636;52.086;5.090;2024-02-26T03:04:27;5.60;99.90
22940;DHT22;11636;52.086;5.090;2024-02-26T03:07:03;5.60;99.90
22940;DHT22;11636;52.086;5.090;2024-02-26T03:09:36;5.60;99.90
22940;DHT22;11636;52.086;5.090;2024-02-26T03:12:03;5.60;99.90
22940;DHT22;11636;52.086;5.090;2024-02-26T03:14:36;5.60;99.90
22940;DHT22;11636;52.086;5.090;2024-02-26T03:17:03;5.60;99.90
22940;DHT22;11636;52.086;5.090;2024-02-26T03:19:36;5.50;99.90
22940;DHT22;11636;52.086;5.090;2024-02-26T03:22:03;5.50;99.90
22940;DHT22;11636;52.086;5.090;2024-02-26T03:24:36;5.60;99.90
22940;DHT22;11636;52.086;5.090;2024-02-26T03:27:03;5.60;99.90
22940;DHT22;11636;52.086;5.090;2024-02-26T03:29:37;5.50;99.90
22940;DHT22;11636;52.086;5.090;2024-02-26T03:32:10;5.60;99.90
22940;DHT22;11636;52.086;5.090;2024-02-26T03:34:37;5.60;99.90
22940;DHT22;11636;52.086;5.090;2024-02-26T03:37:13;5.60;99.90
22940;DHT22;11636;52.086;5.090;2024-02-26T03:39:40;5.50;99.90
22940;DHT22;11636;52.086;5.090;2024-02-26T03:42:06;5.50;99.90
22940;DHT22;11636;52.086;5.090;2024-02-26T03:44:39;5.50;99.90
22940;DHT22;11636;52.086;5.090;2024-02-26T03:47:06;5.50;99.90
22940;DHT22;11636;52.086;5.090;2024-02-26T03:49:39;5.50;99.90
22940;DHT22;11636;52.086;5.090;2024-02-26T03:52:06;5.50;99.90
22940;DHT22;11636;52.086;5.090;2024-02-26T03:54:33;5.50;99.90
22940;DHT22;11636;52.086;5.090;2024-02-26T03:57:06;5.50;99.90
22940;DHT22;11636;52.086;5.090;2024-02-26T03:59:39;5.50;99.90
22940;DHT22;11636;52.086;5.090;2024-02-26T04:02:13;5.50;99.90
22940;DHT22;11636;52.086;5.090;2024-02-26T04:04:39;5.40;99.90
22940;DHT22;11636;52.086;5.090;2024-02-26T04:07:06;5.40;99.90
22940;DHT22;11636;52.086;5.090;2024-02-26T04:09:40;5.50;99.90
22940;DHT22;11636;52.086;5.090;2024-02-26T04:12:07;5.40;99.90
22940;DHT22;11636;52.086;5.090;2024-02-26T04:14:35;5.40;99.90
22940;DHT22;11636;52.086;5.090;2024-02-26T04:17:08;5.40;99.90
22940;DHT22;11636;52.086;5.090;2024-02-26T04:19:41;5.40;99.90
22940;DHT22;11636;52.086;5.090;2024-02-26T04:22:09;5.50;99.90
22940;DHT22;11636;52.086;5.090;2024-02-26T04:24:36;5.40;99.90
22940;DHT22;11636;52.086;5.090;2024-02-26T04:27:09;5.40;99.90
22940;DHT22;11636;52.086;5.090;2024-02-26T04:29:36;5.40;99.90
22940;DHT22;11636;52.086;5.090;2024-02-26T04:32:10;5.40;99.90
22940;DHT22;11636;52.086;5.090;2024-02-26T04:34:36;5.50;99.90
22940;DHT22;11636;52.086;5.090;2024-02-26T04:37:04;5.40;99.90
22940;DHT22;11636;52.086;5.090;2024-02-26T04:39:37;5.40;99.90
22940;DHT22;11636;52.086;5.090;2024-02-26T04:42:14;5.40;99.90
22940;DHT22;11636;52.086;5.090;2024-02-26T04:44:47;5.40;99.90
22940;DHT22;11636;52.086;5.090;2024-02-26T04:47:20;5.40;99.90
22940;DHT22;11636;52.086;5.090;2024-02-26T04:49:55;5.40;99.90
22940;DHT22;11636;52.086;5.090;2024-02-26T04:52:22;5.40;99.90
22940;DHT22;11636;52.086;5.090;2024-02-26T04:54:55;5.40;99.90
22940;DHT22;11636;52.086;5.090;2024-02-26T04:57:22;5.40;99.90
22940;DHT22;11636;52.086;5.090;2024-02-26T04:59:56;5.40;99.90
22940;DHT22;11636;52.086;5.090;2024-02-26T05:02:22;5.30;99.90
22940;DHT22;11636;52.086;5.090;2024-02-26T05:04:56;5.30;99.90
22940;DHT22;11636;52.086;5.090;2024-02-26T05:07:30;5.30;99.90
22940;DHT22;11636;52.086;5.090;2024-02-26T05:10:03;5.30;99.90
22940;DHT22;11636;52.086;5.090;2024-02-26T05:12:30;5.30;99.90
22940;DHT22;11636;52.086;5.090;2024-02-26T05:14:57;5.40;99.90
22940;DHT22;11636;52.086;5.090;2024-02-26T05:17:30;5.30;99.90
22940;DHT22;11636;52.086;5.090;2024-02-26T05:20:04;5.40;99.90
22940;DHT22;11636;52.086;5.090;2024-02-26T05:22:41;5.30;99.90
22940;DHT22;11636;52.086;5.090;2024-02-26T05:25:08;5.40;99.90
22940;DHT22;11636;52.086;5.090;2024-02-26T05:27:43;5.30;99.90
22940;DHT22;11636;52.086;5.090;2024-02-26T05:30:11;5.30;99.90
22940;DHT22;11636;52.086;5.090;2024-02-26T05:32:45;5.30;99.90
22940;DHT22;11636;52.086;5.090;2024-02-26T05:35:18;5.30;99.90
22940;DHT22;11636;52.086;5.090;2024-02-26T05:37:45;5.30;99.90
22940;DHT22;11636;52.086;5.090;2024-02-26T05:40:18;5.30;99.90
22940;DHT22;11636;52.086;5.090;2024-02-26T05:42:51;5.30;99.90
22940;DHT22;11636;52.086;5.090;2024-02-26T05:45:18;5.30;99.90
22940;DHT22;11636;52.086;5.090;2024-02-26T05:47:52;5.30;99.90
22940;DHT22;11636;52.086;5.090;2024-02-26T05:50:19;5.20;99.90
22940;DHT22;11636;52.086;5.090;2024-02-26T05:52:52;5.30;99.90
22940;DHT22;11636;52.086;5.090;2024-02-26T05:55:19;5.30;99.90
22940;DHT22;11636;52.086;5.090;2024-02-26T05:57:52;5.20;99.90
22940;DHT22;11636;52.086;5.090;2024-02-26T06:00:19;5.20;99.90
22940;DHT22;11636;52.086;5.090;2024-02-26T06:02:52;5.30;99.90
22940;DHT22;11636;52.086;5.090;2024-02-26T06:05:18;5.30;99.90
22940;DHT22;11636;52.086;5.090;2024-02-26T06:07:52;5.20;99.90
22940;DHT22;11636;52.086;5.090;2024-02-26T06:10:20;5.20;99.90
22940;DHT22;11636;52.086;5.090;2024-02-26T06:13:00;5.30;99.90
22940;DHT22;11636;52.086;5.090;2024-02-26T06:15:27;5.20;99.90
22940;DHT22;11636;52.086;5.090;2024-02-26T06:17:54;5.30;99.90
22940;DHT22;11636;52.086;5.090;2024-02-26T06:20:28;5.30;99.90
22940;DHT22;11636;52.086;5.090;2024-02-26T06:22:55;5.30;99.90
22940;DHT22;11636;52.086;5.090;2024-02-26T06:25:29;5.30;99.90
22940;DHT22;11636;52.086;5.090;2024-02-26T06:28:02;5.30;99.90
22940;DHT22;11636;52.086;5.090;2024-02-26T06:30:29;5.30;99.90
22940;DHT22;11636;52.086;5.090;2024-02-26T06:33:02;5.30;99.90
22940;DHT22;11636;52.086;5.090;2024-02-26T06:35:36;5.30;99.90
22940;DHT22;11636;52.086;5.090;2024-02-26T06:38:16;5.30;99.90
22940;DHT22;11636;52.086;5.090;2024-02-26T06:40:45;5.40;99.90
22940;DHT22;11636;52.086;5.090;2024-02-26T06:43:19;5.30;99.90
22940;DHT22;11636;52.086;5.090;2024-02-26T06:45:52;5.30;99.90
22940;DHT22;11636;52.086;5.090;2024-02-26T06:48:18;5.40;99.90
22940;DHT22;11636;52.086;5.090;2024-02-26T06:50:45;5.40;99.90
22940;DHT22;11636;52.086;5.090;2024-02-26T06:53:19;5.40;99.90
22940;DHT22;11636;52.086;5.090;2024-02-26T06:55:45;5.40;99.90
22940;DHT22;11636;52.086;5.090;2024-02-26T06:58:19;5.40;99.90
22940;DHT22;11636;52.086;5.090;2024-02-26T07:00:46;5.40;99.90
22940;DHT22;11636;52.086;5.090;2024-02-26T07:03:13;5.40;99.90
22940;DHT22;11636;52.086;5.090;2024-02-26T07:05:47;5.40;99.90
22940;DHT22;11636;52.086;5.090;2024-02-26T07:08:20;5.40;99.90
22940;DHT22;11636;52.086;5.090;2024-02-26T07:10:48;5.40;99.90
22940;DHT22;11636;52.086;5.090;2024-02-26T07:13:21;5.40;99.90
22940;DHT22;11636;52.086;5.090;2024-02-26T07:15:48;5.40;99.90
22940;DHT22;11636;52.086;5.090;2024-02-26T07:18:21;5.40;99.90
22940;DHT22;11636;52.086;5.090;2024-02-26T07:20:48;5.40;99.90
22940;DHT22;11636;52.086;5.090;2024-02-26T07:23:15;5.40;99.90
22940;DHT22;11636;52.086;5.090;2024-02-26T07:25:48;5.40;99.90
22940;DHT22;11636;52.086;5.090;2024-02-26T07:28:16;5.50;99.90
22940;DHT22;11636;52.086;5.090;2024-02-26T07:30:50;5.50;99.90
22940;DHT22;11636;52.086;5.090;2024-02-26T07:33:19;5.40;99.90
22940;DHT22;11636;52.086;5.090;2024-02-26T07:35:53;5.40;99.90
22940;DHT22;11636;52.086;5.090;2024-02-26T07:38:20;5.40;99.90
22940;DHT22;11636;52.086;5.090;2024-02-26T07:41:07;5.40;99.90
22940;DHT22;11636;52.086;5.090;2024-02-26T07:43:40;5.40;99.90
22940;DHT22;11636;52.086;5.090;2024-02-26T07:46:14;5.40;99.90
22940;DHT22;11636;52.086;5.090;2024-02-26T07:48:41;5.50;99.90
22940;DHT22;11636;52.086;5.090;2024-02-26T07:51:15;5.40;99.90
22940;DHT22;11636;52.086;5.090;2024-02-26T07:53:42;5.50;99.90
22940;DHT22;11636;52.086;5.090;2024-02-26T07:56:16;5.50;99.90
22940;DHT22;11636;52.086;5.090;2024-02-26T07:58:49;5.50;99.90
22940;DHT22;11636;52.086;5.090;2024-02-26T08:01:22;5.50;99.90
22940;DHT22;11636;52.086;5.090;2024-02-26T08:03:49;5.50;99.90
22940;DHT22;11636;52.086;5.090;2024-02-26T08:06:16;5.60;99.90
22940;DHT22;11636;52.086;5.090;2024-02-26T08:08:50;5.50;99.90
22940;DHT22;11636;52.086;5.090;2024-02-26T08:11:17;5.60;99.90
22940;DHT22;11636;52.086;5.090;2024-02-26T08:13:51;5.60;99.90
22940;DHT22;11636;52.086;5.090;2024-02-26T08:16:18;5.60;99.90
22940;DHT22;11636;52.086;5.090;2024-02-26T08:19:00;5.60;99.90
22940;DHT22;11636;52.086;5.090;2024-02-26T08:21:33;5.60;99.90
22940;DHT22;11636;52.086;5.090;2024-02-26T08:24:06;5.60;99.90
22940;DHT22;11636;52.086;5.090;2024-02-26T08:26:33;5.60;99.90
22940;DHT22;11636;52.086;5.090;2024-02-26T08:29:06;5.60;99.90
22940;DHT22;11636;52.086;5.090;2024-02-26T08:31:33;5.60;99.90
22940;DHT22;11636;52.086;5.090;2024-02-26T08:34:09;5.60;99.90
22940;DHT22;11636;52.086;5.090;2024-02-26T08:36:39;5.70;99.90
22940;DHT22;11636;52.086;5.090;2024-02-26T08:39:14;5.70;99.90
22940;DHT22;11636;52.086;5.090;2024-02-26T08:41:46;5.70;99.90
22940;DHT22;11636;52.086;5.090;2024-02-26T08:44:20;5.70;99.90
22940;DHT22;11636;52.086;5.090;2024-02-26T08:46:47;5.70;99.90
22940;DHT22;11636;52.086;5.090;2024-02-26T08:49:20;5.70;99.90
22940;DHT22;11636;52.086;5.090;2024-02-26T08:51:50;5.70;99.90
22940;DHT22;11636;52.086;5.090;2024-02-26T08:54:23;5.70;99.90
22940;DHT22;11636;52.086;5.090;2024-02-26T08:56:57;5.70;99.90
22940;DHT22;11636;52.086;5.090;2024-02-26T08:59:24;5.70;99.90
22940;DHT22;11636;52.086;5.090;2024-02-26T09:01:51;5.70;99.90
22940;DHT22;11636;52.086;5.090;2024-02-26T09:04:24;5.80;99.90
22940;DHT22;11636;52.086;5.090;2024-02-26T09:06:57;5.80;99.90
22940;DHT22;11636;52.086;5.090;2024-02-26T09:09:24;5.80;99.90
22940;DHT22;11636;52.086;5.090;2024-02-26T09:11:53;5.80;99.90
22940;DHT22;11636;52.086;5.090;2024-02-26T09:14:28;5.80;99.90
22940;DHT22;11636;52.086;5.090;2024-02-26T09:16:55;5.70;99.90
22940;DHT22;11636;52.086;5.090;2024-02-26T09:19:28;5.70;99.90
22940;DHT22;11636;52.086;5.090;2024-02-26T09:21:55;5.70;99.90
22940;DHT22;11636;52.086;5.090;2024-02-26T09:24:30;5.70;99.90
22940;DHT22;11636;52.086;5.090;2024-02-26T09:27:03;5.70;99.90
22940;DHT22;11636;52.086;5.090;2024-02-26T09:29:30;5.70;99.90
22940;DHT22;11636;52.086;5.090;2024-02-26T09:32:03;5.70;99.90
22940;DHT22;11636;52.086;5.090;2024-02-26T09:34:30;5.70;99.90
22940;DHT22;11636;52.086;5.090;2024-02-26T09:37:10;5.60;99.90
22940;DHT22;11636;52.086;5.090;2024-02-26T09:39:48;5.60;99.90
22940;DHT22;11636;52.086;5.090;2024-02-26T09:42:27;5.60;99.90
22940;DHT22;11636;52.086;5.090;2024-02-26T09:44:58;5.60;99.90
22940;DHT22;11636;52.086;5.090;2024-02-26T09:47:36;5.60;99.90
22940;DHT22;11636;52.086;5.090;2024-02-26T09:50:03;5.60;99.90
22940;DHT22;11636;52.086;5.090;2024-02-26T09:52:33;5.60;99.90
22940;DHT22;11636;52.086;5.090;2024-02-26T09:55:08;5.50;99.90
22940;DHT22;11636;52.086;5.090;2024-02-26T09:57:44;5.50;99.90
22940;DHT22;11636;52.086;5.090;2024-02-26T10:00:20;5.50;99.90
22940;DHT22;11636;52.086;5.090;2024-02-26T10:02:47;5.60;99.90
22940;DHT22;11636;52.086;5.090;2024-02-26T10:05:21;5.50;99.90
22940;DHT22;11636;52.086;5.090;2024-02-26T10:07:56;5.50;99.90
22940;DHT22;11636;52.086;5.090;2024-02-26T10:10:24;5.50;99.90
22940;DHT22;11636;52.086;5.090;2024-02-26T10:12:59;5.50;99.90
22940;DHT22;11636;52.086;5.090;2024-02-26T10:15:27;5.50;99.90
22940;DHT22;11636;52.086;5.090;2024-02-26T10:17:55;5.60;99.90
22940;DHT22;11636;52.086;5.090;2024-02-26T10:20:28;5.60;99.90
22940;DHT22;11636;52.086;5.090;2024-02-26T10:22:55;5.70;99.90
22940;DHT22;11636;52.086;5.090;2024-02-26T10:25:29;5.70;99.90
22940;DHT22;11636;52.086;5.090;2024-02-26T10:28:01;5.70;99.90
22940;DHT22;11636;52.086;5.090;2024-02-26T10:30:37;5.60;99.90
22940;DHT22;11636;52.086;5.090;2024-02-26T10:33:04;5.60;99.90
22940;DHT22;11636;52.086;5.090;2024-02-26T10:35:48;5.60;99.90
22940;DHT22;11636;52.086;5.090;2024-02-26T10:38:22;5.60;99.90
22940;DHT22;11636;52.086;5.090;2024-02-26T10:40:56;5.60;99.90
22940;DHT22;11636;52.086;5.090;2024-02-26T10:43:29;5.60;99.90
22940;DHT22;11636;52.086;5.090;2024-02-26T10:45:56;5.60;99.90
22940;DHT22;11636;52.086;5.090;2024-02-26T10:48:29;5.60;99.90
22940;DHT22;11636;52.086;5.090;2024-02-26T10:51:03;5.60;99.90
22940;DHT22;11636;52.086;5.090;2024-02-26T10:53:31;5.70;99.90
22940;DHT22;11636;52.086;5.090;2024-02-26T10:56:06;5.70;99.90
22940;DHT22;11636;52.086;5.090;2024-02-26T10:58:41;5.70;99.90
22940;DHT22;11636;52.086;5.090;2024-02-26T11:01:09;5.70;99.90
22940;DHT22;11636;52.086;5.090;2024-02-26T11:03:43;5.80;99.90
22940;DHT22;11636;52.086;5.090;2024-02-26T11:06:10;5.90;99.90
22940;DHT22;11636;52.086;5.090;2024-02-26T11:08:39;5.90;99.90
22940;DHT22;11636;52.086;5.090;2024-02-26T11:11:13;5.90;99.90
22940;DHT22;11636;52.086;5.090;2024-02-26T11:13:43;5.90;99.90
22940;DHT22;11636;52.086;5.090;2024-02-26T11:16:18;6.00;99.90
22940;DHT22;11636;52.086;5.090;2024-02-26T11:18:47;6.00;99.90
22940;DHT22;11636;52.086;5.090;2024-02-26T11:21:19;6.00;99.90
22940;DHT22;11636;52.086;5.090;2024-02-26T11:23:53;6.10;99.90
22940;DHT22;11636;52.086;5.090;2024-02-26T11:26:26;6.20;99.90
22940;DHT22;11636;52.086;5.090;2024-02-26T11:29:01;6.20;99.90
22940;DHT22;11636;52.086;5.090;2024-02-26T11:31:28;6.20;99.90
22940;DHT22;11636;52.086;5.090;2024-02-26T11:33:56;6.30;99.90
22940;DHT22;11636;52.086;5.090;2024-02-26T11:36:30;6.30;99.90
22940;DHT22;11636;52.086;5.090;2024-02-26T11:38:57;6.30;99.90
22940;DHT22;11636;52.086;5.090;2024-02-26T11:41:31;6.30;99.90
22940;DHT22;11636;52.086;5.090;2024-02-26T11:44:00;6.30;99.90
22940;DHT22;11636;52.086;5.090;2024-02-26T11:46:42;6.30;99.90
22940;DHT22;11636;52.086;5.090;2024-02-26T11:52:06;6.30;99.90
22940;DHT22;11636;52.086;5.090;2024-02-26T11:54:47;6.30;99.90
22940;DHT22;11636;52.086;5.090;2024-02-26T12:02:52;6.30;99.90
22940;DHT22;11636;52.086;5.090;2024-02-26T12:05:33;6.30;99.90
22940;DHT22;11636;52.086;5.090;2024-02-26T12:08:08;6.40;99.90
22940;DHT22;11636;52.086;5.090;2024-02-26T12:10:39;6.40;99.90
22940;DHT22;11636;52.086;5.090;2024-02-26T12:13:14;6.30;99.90
22940;DHT22;11636;52.086;5.090;2024-02-26T12:15:57;6.40;99.90
22940;DHT22;11636;52.086;5.090;2024-02-26T12:18:25;6.40;99.90
22940;DHT22;11636;52.086;5.090;2024-02-26T12:21:03;6.30;99.90
22940;DHT22;11636;52.086;5.090;2024-02-26T12:23:31;6.30;99.90
22940;DHT22;11636;52.086;5.090;2024-02-26T12:26:04;6.30;99.90
22940;DHT22;11636;52.086;5.090;2024-02-26T12:28:35;6.30;99.90
22940;DHT22;11636;52.086;5.090;2024-02-26T12:31:08;6.30;99.90
22940;DHT22;11636;52.086;5.090;2024-02-26T12:33:35;6.30;99.90
22940;DHT22;11636;52.086;5.090;2024-02-26T12:36:09;6.40;99.90
22940;DHT22;11636;52.086;5.090;2024-02-26T12:38:36;6.40;99.90
22940;DHT22;11636;52.086;5.090;2024-02-26T12:41:10;6.50;99.90
22940;DHT22;11636;52.086;5.090;2024-02-26T12:43:44;6.40;99.90
22940;DHT22;11636;52.086;5.090;2024-02-26T12:46:16;6.40;99.90
22940;DHT22;11636;52.086;5.090;2024-02-26T12:48:43;6.40;99.90
22940;DHT22;11636;52.086;5.090;2024-02-26T12:51:18;6.40;99.90
22940;DHT22;11636;52.086;5.090;2024-02-26T12:53:46;6.40;99.90
22940;DHT22;11636;52.086;5.090;2024-02-26T12:56:20;6.40;99.90
22940;DHT22;11636;52.086;5.090;2024-02-26T12:58:48;6.40;99.90
22940;DHT22;11636;52.086;5.090;2024-02-26T13:01:19;6.40;99.90
22940;DHT22;11636;52.086;5.090;2024-02-26T13:03:54;6.50;99.90
22940;DHT22;11636;52.086;5.090;2024-02-26T13:06:27;6.50;99.90
22940;DHT22;11636;52.086;5.090;2024-02-26T13:08:57;6.50;99.90
22940;DHT22;11636;52.086;5.090;2024-02-26T13:11:31;6.60;99.90
22940;DHT22;11636;52.086;5.090;2024-02-26T13:14:05;6.60;99.90
22940;DHT22;11636;52.086;5.090;2024-02-26T13:16:34;6.70;99.90
22940;DHT22;11636;52.086;5.090;2024-02-26T13:19:11;6.70;99.90
22940;DHT22;11636;52.086;5.090;2024-02-26T13:21:45;6.70;99.90
22940;DHT22;11636;52.086;5.090;2024-02-26T13:24:19;6.70;99.90
22940;DHT22;11636;52.086;5.090;2024-02-26T13:26:47;6.70;99.90
22940;DHT22;11636;52.086;5.090;2024-02-26T13:29:20;6.70;99.90
22940;DHT22;11636;52.086;5.090;2024-02-26T13:31:47;6.70;99.90
22940;DHT22;11636;52.086;5.090;2024-02-26T13:34:27;6.70;99.90
22940;DHT22;11636;52.086;5.090;2024-02-26T13:36:55;6.70;99.90
22940;DHT22;11636;52.086;5.090;2024-02-26T13:39:28;6.70;99.90
22940;DHT22;11636;52.086;5.090;2024-02-26T13:41:57;6.70;99.90
22940;DHT22;11636;52.086;5.090;2024-02-26T13:44:30;6.70;99.90
22940;DHT22;11636;52.086;5.090;2024-02-26T13:46:58;6.70;99.90
22940;DHT22;11636;52.086;5.090;2024-02-26T13:49:25;6.60;99.90
22940;DHT22;11636;52.086;5.090;2024-02-26T13:51:58;6.60;99.90
22940;DHT22;11636;52.086;5.090;2024-02-26T13:54:25;6.60;99.90
22940;DHT22;11636;52.086;5.090;2024-02-26T13:57:00;6.60;99.90
22940;DHT22;11636;52.086;5.090;2024-02-26T13:59:26;6.60;99.90
22940;DHT22;11636;52.086;5.090;2024-02-26T14:02:01;6.50;99.90
22940;DHT22;11636;52.086;5.090;2024-02-26T14:04:28;6.50;99.90
22940;DHT22;11636;52.086;5.090;2024-02-26T14:07:02;6.50;99.90
22940;DHT22;11636;52.086;5.090;2024-02-26T14:09:37;6.50;99.90
22940;DHT22;11636;52.086;5.090;2024-02-26T14:12:15;6.60;99.90
22940;DHT22;11636;52.086;5.090;2024-02-26T14:14:51;6.60;99.90
22940;DHT22;11636;52.086;5.090;2024-02-26T14:17:20;6.50;99.90
22940;DHT22;11636;52.086;5.090;2024-02-26T14:19:53;6.50;99.90
22940;DHT22;11636;52.086;5.090;2024-02-26T14:22:20;6.40;99.90
22940;DHT22;11636;52.086;5.090;2024-02-26T14:24:53;6.40;99.90
22940;DHT22;11636;52.086;5.090;2024-02-26T14:27:20;6.40;99.90
22940;DHT22;11636;52.086;5.090;2024-02-26T14:29:49;6.40;99.90
22940;DHT22;11636;52.086;5.090;2024-02-26T14:32:22;6.40;99.90
22940;DHT22;11636;52.086;5.090;2024-02-26T14:34:48;6.50;99.90
22940;DHT22;11636;52.086;5.090;2024-02-26T14:37:21;6.50;99.90
22940;DHT22;11636;52.086;5.090;2024-02-26T14:39:48;6.50;99.90
22940;DHT22;11636;52.086;5.090;2024-02-26T14:42:24;6.60;99.90
22940;DHT22;11636;52.086;5.090;2024-02-26T14:44:51;6.60;99.90
22940;DHT22;11636;52.086;5.090;2024-02-26T14:47:25;6.70;99.90
22940;DHT22;11636;52.086;5.090;2024-02-26T14:49:57;6.70;99.90
22940;DHT22;11636;52.086;5.090;2024-02-26T14:52:24;6.80;99.90
22940;DHT22;11636;52.086;5.090;2024-02-26T14:54:57;6.80;99.90
22940;DHT22;11636;52.086;5.090;2024-02-26T14:57:24;6.80;99.90
22940;DHT22;11636;52.086;5.090;2024-02-26T14:59:51;6.90;99.90
22940;DHT22;11636;52.086;5.090;2024-02-26T15:02:24;6.90;99.90
22940;DHT22;11636;52.086;5.090;2024-02-26T15:04:57;7.10;99.90
22940;DHT22;11636;52.086;5.090;2024-02-26T15:07:24;7.10;99.90
22940;DHT22;11636;52.086;5.090;2024-02-26T15:09:58;7.20;99.90
22940;DHT22;11636;52.086;5.090;2024-02-26T15:12:26;7.20;99.90
22940;DHT22;11636;52.086;5.090;2024-02-26T15:15:01;7.30;99.90
22940;DHT22;11636;52.086;5.090;2024-02-26T15:17:28;7.30;99.90
22940;DHT22;11636;52.086;5.090;2024-02-26T15:20:01;7.30;99.90
22940;DHT22;11636;52.086;5.090;2024-02-26T15:22:28;7.20;99.90
22940;DHT22;11636;52.086;5.090;2024-02-26T15:25:02;7.30;99.90
22940;DHT22;11636;52.086;5.090;2024-02-26T15:27:28;7.20;99.90
22940;DHT22;11636;52.086;5.090;2024-02-26T15:30:02;7.20;99.90
22940;DHT22;11636;52.086;5.090;2024-02-26T15:32:36;7.20;99.90
22940;DHT22;11636;52.086;5.090;2024-02-26T15:35:10;7.20;99.90
22940;DHT22;11636;52.086;5.090;2024-02-26T15:37:43;7.20;99.90
22940;DHT22;11636;52.086;5.090;2024-02-26T15:40:18;7.10;99.90
22940;DHT22;11636;52.086;5.090;2024-02-26T15:42:47;7.10;99.90
22940;DHT22;11636;52.086;5.090;2024-02-26T15:45:21;7.00;99.90
22940;DHT22;11636;52.086;5.090;2024-02-26T15:47:47;6.90;99.90
22940;DHT22;11636;52.086;5.090;2024-02-26T15:50:15;6.80;99.90
22940;DHT22;11636;52.086;5.090;2024-02-26T15:52:48;6.80;99.90
22940;DHT22;11636;52.086;5.090;2024-02-26T15:55:14;6.70;99.90
22940;DHT22;11636;52.086;5.090;2024-02-26T15:57:44;6.70;99.90
22940;DHT22;11636;52.086;5.090;2024-02-26T16:00:18;6.60;99.90
22940;DHT22;11636;52.086;5.090;2024-02-26T16:02:47;6.60;99.90
22940;DHT22;11636;52.086;5.090;2024-02-26T16:05:16;6.60;99.90
22940;DHT22;11636;52.086;5.090;2024-02-26T16:07:54;6.50;99.90
22940;DHT22;11636;52.086;5.090;2024-02-26T16:10:29;6.50;99.90
22940;DHT22;11636;52.086;5.090;2024-02-26T16:13:01;6.50;99.90
22940;DHT22;11636;52.086;5.090;2024-02-26T16:15:35;6.50;99.90
22940;DHT22;11636;52.086;5.090;2024-02-26T16:18:02;6.40;99.90